Time;durP1;ratioP1;P1;durP2;ratioP2;P2;SDS_P1;SDS_P2;PMS_P1;PMS_P2;Temp;Humidity;BMP_temperature;BMP_pressure;BME280_temperature;BME280_humidity;BME280_pressure;Samples;Min_cycle;Max_cycle;Signal;HPM_P1;HPM_P2
2022/05/17 00:01:24;;;;;;;7.60;3.37;;;;;;;22.66;59.17;100747.00;5113883;28;20169;-61
2022/05/17 00:03:50;;;;;;;6.13;3.30;;;;;;;22.65;59.28;100736.72;5113440;28;20182;-61
2022/05/17 00:06:15;;;;;;;7.63;3.70;;;;;;;22.65;59.20;100745.34;5113705;28;20559;-61
2022/05/17 00:08:41;;;;;;;5.07;3.03;;;;;;;22.64;58.68;100739.97;5113123;28;20564;-61
2022/05/17 00:11:06;;;;;;;8.57;4.10;;;;;;;22.62;59.22;100751.88;5114087;28;20734;-61
2022/05/17 00:13:32;;;;;;;4.80;3.17;;;;;;;22.63;59.08;100749.84;5111957;28;20173;-61
2022/05/17 00:15:58;;;;;;;6.60;3.10;;;;;;;22.61;59.17;100738.72;5113625;28;20244;-61
2022/05/17 00:18:23;;;;;;;7.03;3.63;;;;;;;22.62;58.96;100743.25;5114348;27;20172;-61
2022/05/17 00:20:49;;;;;;;7.00;3.20;;;;;;;22.61;59.21;100738.72;5122450;27;20191;-61
2022/05/17 00:23:17;;;;;;;7.10;3.70;;;;;;;22.61;58.94;100738.72;5093838;28;20185;-61
2022/05/17 00:25:44;;;;;;;8.87;3.10;;;;;;;22.61;58.64;100735.84;5111178;28;20170;-61
2022/05/17 00:28:09;;;;;;;6.60;3.40;;;;;;;22.61;58.56;100744.47;5111139;28;20497;-61
2022/05/17 00:30:35;;;;;;;7.87;4.17;;;;;;;22.62;58.66;100746.13;5112289;27;20782;-61
2022/05/17 00:33:00;;;;;;;6.10;3.50;;;;;;;22.61;58.53;100741.59;5112202;28;20632;-61
2022/05/17 00:35:26;;;;;;;7.57;3.60;;;;;;;22.60;58.51;100733.34;5111789;28;20691;-61
2022/05/17 00:37:51;;;;;;;7.87;3.40;;;;;;;22.61;58.66;100732.13;5111790;28;20197;-61
2022/05/17 00:40:17;;;;;;;5.20;3.30;;;;;;;22.59;58.77;100723.91;5112766;28;20177;-61
2022/05/17 00:42:42;;;;;;;5.60;3.40;;;;;;;22.59;58.98;100721.03;5112544;28;20197;-61
2022/05/17 00:45:09;;;;;;;4.53;2.87;;;;;;;22.58;58.60;100722.22;5113595;28;20194;-61
2022/05/17 00:47:45;;;;;;;6.00;3.33;;;;;;;22.59;58.59;100721.03;5112105;28;20180;-61
2022/05/17 00:50:32;;;;;;;5.90;3.10;;;;;;;22.59;58.83;100728.84;5078257;28;20489;-61
2022/05/17 00:53:08;;;;;;;9.23;3.57;;;;;;;22.59;58.89;100718.16;5075638;28;20765;-61
2022/05/17 00:55:41;;;;;;;9.47;3.27;;;;;;;22.59;58.59;100721.03;5091008;28;20467;-61
2022/05/17 00:58:16;;;;;;;6.13;3.17;;;;;;;22.59;58.93;100723.06;5100969;28;20470;-61
2022/05/17 01:01:12;;;;;;;5.53;3.30;;;;;;;22.58;58.50;100732.94;5112269;28;20791;-61
2022/05/17 01:04:13;;;;;;;4.77;3.10;;;;;;;22.57;58.24;100743.63;5109637;28;20833;-61
2022/05/17 01:06:44;;;;;;;8.27;3.23;;;;;;;22.58;58.41;100730.88;5096660;28;20435;-61
2022/05/17 01:09:12;;;;;;;5.30;3.40;;;;;;;22.57;58.53;100731.28;5094523;28;20463;-61
2022/05/17 01:11:38;;;;;;;7.93;3.17;;;;;;;22.56;58.85;100721.81;5111901;28;20426;-61
2022/05/17 01:16:48;;;;;;;7.30;3.50;;;;;;;22.55;58.73;100725.94;5113025;28;20185;-61
2022/05/17 01:19:14;;;;;;;5.10;3.00;;;;;;;22.56;58.58;100720.97;5112898;28;20857;-61
2022/05/17 01:21:39;;;;;;;4.60;2.97;;;;;;;22.55;58.78;100727.97;5099998;28;20308;-61
2022/05/17 01:24:05;;;;;;;5.53;2.90;;;;;;;22.56;58.72;100738.25;5092146;28;20531;-61
2022/05/17 01:26:31;;;;;;;7.33;3.60;;;;;;;22.55;58.53;100734.56;5094869;28;20171;-61
2022/05/17 01:28:56;;;;;;;4.90;2.70;;;;;;;22.55;58.41;100734.56;5094319;28;20662;-61
2022/05/17 01:31:22;;;;;;;7.00;3.37;;;;;;;22.54;58.08;100732.91;5112453;28;20408;-61
2022/05/17 01:33:47;;;;;;;5.60;3.33;;;;;;;22.55;58.12;100737.44;5110935;28;20192;-61
2022/05/17 01:36:15;;;;;;;6.80;2.70;;;;;;;22.54;58.60;100729.19;5111281;28;20168;-61
2022/05/17 01:38:43;;;;;;;4.73;3.20;;;;;;;22.53;58.03;100731.25;5110919;28;20189;-61
2022/05/17 01:41:09;;;;;;;10.43;3.80;;;;;;;22.54;58.69;100730.03;5110271;28;20422;-61
2022/05/17 01:43:34;;;;;;;4.97;2.97;;;;;;;22.53;57.93;100741.94;5110673;28;20498;-61
2022/05/17 01:46:06;;;;;;;8.13;2.80;;;;;;;22.51;58.19;100736.56;5109798;28;20834;-61
2022/05/17 01:48:32;;;;;;;6.30;3.10;;;;;;;22.51;58.39;100738.63;5110646;28;20169;-61
2022/05/17 01:50:57;;;;;;;6.00;3.10;;;;;;;22.50;58.64;100734.94;5099472;28;20421;-61
2022/05/17 01:53:23;;;;;;;4.23;2.93;;;;;;;22.50;58.36;100740.69;5091165;28;20543;-61
2022/05/17 01:55:48;;;;;;;4.90;2.87;;;;;;;22.50;58.31;100743.56;5090461;28;20206;-61
2022/05/17 01:58:14;;;;;;;5.40;3.03;;;;;;;22.50;58.03;100743.56;5089352;28;20174;-61
2022/05/17 02:00:39;;;;;;;5.30;2.97;;;;;;;22.50;58.37;100740.69;5088316;28;20165;-61
2022/05/17 02:03:04;;;;;;;5.10;2.77;;;;;;;22.50;58.14;100734.94;5088204;28;20178;-61
2022/05/17 02:05:30;;;;;;;5.00;2.87;;;;;;;22.49;57.90;100729.56;5088285;28;20522;-61
2022/05/17 02:07:55;;;;;;;4.57;2.93;;;;;;;22.48;57.97;100734.47;5088533;28;20540;-61
2022/05/17 02:10:25;;;;;;;3.60;2.40;;;;;;;22.48;58.00;100734.47;5089088;28;20285;-61
2022/05/17 02:12:52;;;;;;;5.50;2.90;;;;;;;22.48;58.07;100730.78;5089874;28;20641;-61
2022/05/17 02:15:18;;;;;;;6.17;3.30;;;;;;;22.47;58.23;100729.16;5089995;28;20479;-61
2022/05/17 02:17:43;;;;;;;7.83;3.23;;;;;;;22.48;58.10;100727.91;5117962;27;20418;-61
2022/05/17 02:20:09;;;;;;;5.10;3.33;;;;;;;22.47;58.27;100729.16;5132044;27;20169;-61
2022/05/17 02:22:34;;;;;;;4.70;2.77;;;;;;;22.48;58.21;100733.66;5111252;28;20524;-61
2022/05/17 02:25:00;;;;;;;3.80;2.43;;;;;;;22.46;57.95;100739.81;5111478;28;20641;-61
2022/05/17 02:27:25;;;;;;;6.33;3.10;;;;;;;22.46;58.22;100739.81;5111862;28;20209;-61
2022/05/17 02:29:51;;;;;;;5.17;2.70;;;;;;;22.45;58.28;100732.41;5110855;28;20198;-61
2022/05/17 02:32:16;;;;;;;4.30;2.37;;;;;;;22.46;58.25;100736.94;5111621;28;20173;-61
2022/05/17 02:34:42;;;;;;;4.80;2.60;;;;;;;22.45;57.76;100735.28;5111684;28;20217;-61
2022/05/17 02:37:08;;;;;;;4.67;2.33;;;;;;;22.45;58.13;100735.28;5110874;28;20250;-61
2022/05/17 02:39:34;;;;;;;6.70;2.80;;;;;;;22.44;57.87;100736.53;5110158;28;20423;-61
2022/05/17 02:41:59;;;;;;;7.27;3.03;;;;;;;22.45;58.24;100743.94;5111150;28;20255;-61
2022/05/17 02:44:25;;;;;;;6.60;3.70;;;;;;;22.44;57.90;100733.66;5110000;28;20444;-61
2022/05/17 02:46:50;;;;;;;4.60;2.70;;;;;;;22.44;57.88;100742.28;5108915;28;20184;-61
2022/05/17 02:49:16;;;;;;;5.17;2.73;;;;;;;22.44;58.04;100738.53;5092518;28;20232;-61
2022/05/17 02:51:42;;;;;;;4.20;2.70;;;;;;;22.42;58.09;100741.00;5089804;28;20645;-61
2022/05/17 02:54:10;;;;;;;4.90;2.97;;;;;;;22.42;58.09;100736.03;5089520;28;20194;-61
2022/05/17 02:56:35;;;;;;;5.60;2.97;;;;;;;22.41;57.95;100748.78;5090477;28;20191;-61
2022/05/17 02:59:01;;;;;;;4.70;3.00;;;;;;;22.41;58.20;100745.91;5099697;28;20756;-61
2022/05/17 03:01:26;;;;;;;4.20;2.50;;;;;;;22.41;57.47;100747.94;5098627;28;20173;-61
2022/05/17 03:03:52;;;;;;;4.00;3.00;;;;;;;22.41;57.71;100748.78;5111088;28;20615;-62
2022/05/17 03:06:17;;;;;;;5.27;2.80;;;;;;;22.40;57.75;100750.00;5111092;28;20154;-62
2022/05/17 03:08:43;;;;;;;5.17;2.70;;;;;;;22.41;57.57;100750.81;5111725;28;20177;-61
2022/05/17 03:11:09;;;;;;;5.60;2.80;;;;;;;22.40;57.97;100749.16;5111189;28;20229;-61
2022/05/17 03:13:35;;;;;;;5.40;2.90;;;;;;;22.39;57.80;100745.50;5110823;28;20173;-62
2022/05/17 03:16:01;;;;;;;10.43;3.27;;;;;;;22.39;57.51;100748.38;5111131;28;20940;-61
2022/05/17 03:18:26;;;;;;;4.50;2.60;;;;;;;22.38;57.91;100746.69;5130925;28;20177;-61
2022/05/17 03:20:52;;;;;;;5.00;3.13;;;;;;;22.38;57.86;100754.50;5118180;27;20178;-62
2022/05/17 03:23:17;;;;;;;4.30;2.47;;;;;;;22.39;57.58;100757.00;5091007;28;20827;-61
2022/05/17 03:25:42;;;;;;;4.00;2.30;;;;;;;22.37;57.61;100756.53;5090818;28;20174;-61
2022/05/17 03:28:09;;;;;;;5.20;3.10;;;;;;;22.38;57.79;100763.13;5099286;28;20170;-61
2022/05/17 03:30:34;;;;;;;4.90;2.87;;;;;;;22.38;57.76;100768.91;5092723;28;20174;-61
2022/05/17 03:33:00;;;;;;;5.80;3.10;;;;;;;22.37;57.71;100759.44;5110470;28;20404;-61
2022/05/17 03:35:25;;;;;;;5.40;2.57;;;;;;;22.37;57.83;100767.25;5113113;28;20197;-61
2022/05/17 03:37:51;;;;;;;4.47;2.77;;;;;;;22.36;57.31;100760.66;5113340;28;20154;-61
2022/05/17 03:40:17;;;;;;;4.67;2.70;;;;;;;22.37;57.34;100761.50;5113225;28;20177;-61
2022/05/17 03:42:42;;;;;;;4.70;2.40;;;;;;;22.36;57.40;100762.69;5114096;28;20177;-62
2022/05/17 03:45:08;;;;;;;4.10;2.70;;;;;;;22.35;57.70;100759.00;5110074;28;20431;-61
2022/05/17 03:47:34;;;;;;;5.03;2.70;;;;;;;22.34;57.81;100763.09;5114194;28;20659;-61
2022/05/17 03:49:59;;;;;;;4.27;2.27;;;;;;;22.34;57.38;100768.88;5114302;28;20269;-61
2022/05/17 03:52:25;;;;;;;4.93;2.87;;;;;;;22.34;57.65;100763.09;5095521;28;20529;-61
2022/05/17 03:54:56;;;;;;;6.00;2.50;;;;;;;22.34;57.34;100759.41;5075921;28;20296;-61
2022/05/17 03:57:23;;;;;;;13.33;2.70;;;;;;;22.33;57.55;100761.44;5093887;28;20759;-61
2022/05/17 03:59:48;;;;;;;5.43;2.60;;;;;;;22.34;57.22;100768.88;5093793;28;20991;-61
2022/05/17 04:02:14;;;;;;;4.87;3.00;;;;;;;22.32;57.17;100762.66;5094142;28;20420;-62
2022/05/17 04:04:39;;;;;;;4.80;2.67;;;;;;;22.32;57.33;100767.59;5093970;28;20194;-61
2022/05/17 04:07:05;;;;;;;4.00;2.33;;;;;;;22.31;57.33;100772.53;5093298;28;20179;-61
2022/05/17 04:09:30;;;;;;;3.97;2.40;;;;;;;22.31;57.45;100769.66;5093628;28;20230;-61
2022/05/17 04:11:56;;;;;;;4.43;2.40;;;;;;;22.31;57.30;100761.00;5093631;28;20174;-61
2022/05/17 04:14:21;;;;;;;4.93;2.53;;;;;;;22.30;57.71;100768.00;5093597;28;20194;-61
2022/05/17 04:16:46;;;;;;;3.70;2.67;;;;;;;22.29;57.68;100766.34;5112565;27;20201;-61
2022/05/17 04:19:15;;;;;;;4.33;2.37;;;;;;;22.30;57.20;100767.16;5134423;27;20591;-61
2022/05/17 04:21:41;;;;;;;4.77;2.40;;;;;;;22.30;57.59;100767.16;5106796;27;20237;-61
2022/05/17 04:24:06;;;;;;;4.47;2.37;;;;;;;22.29;57.53;100769.22;5091166;28;20503;-61
2022/05/17 04:26:32;;;;;;;5.43;2.93;;;;;;;22.31;56.97;100775.41;5088836;28;20190;-61
2022/05/17 04:28:57;;;;;;;5.60;2.47;;;;;;;22.30;57.13;100775.78;5092372;28;20163;-61
2022/05/17 04:31:22;;;;;;;8.70;2.90;;;;;;;22.30;57.22;100773.75;5098809;28;20212;-61
2022/05/17 04:33:48;;;;;;;4.17;2.87;;;;;;;22.31;56.95;100786.91;5112197;28;20527;-61
2022/05/17 04:36:13;;;;;;;2.73;2.10;;;;;;;22.32;57.40;100785.69;5112320;28;20216;-61
2022/05/17 04:38:39;;;;;;;3.87;2.30;;;;;;;22.34;56.73;100780.38;5112893;28;20170;-61
2022/05/17 04:41:04;;;;;;;8.13;2.73;;;;;;;22.34;56.77;100783.25;5113781;28;20295;-61
2022/05/17 04:43:30;;;;;;;6.07;2.80;;;;;;;22.34;57.03;100786.13;5113371;28;20189;-61
2022/05/17 04:45:56;;;;;;;3.83;2.70;;;;;;;22.33;57.28;100790.19;5111814;27;20254;-61
2022/05/17 04:48:24;;;;;;;4.90;2.57;;;;;;;22.32;56.90;100794.31;5113080;28;20178;-61
2022/05/17 04:50:53;;;;;;;4.27;2.23;;;;;;;22.33;57.10;100795.16;5106451;28;20515;-61
2022/05/17 04:53:19;;;;;;;6.93;2.70;;;;;;;22.33;57.09;100804.59;5096904;28;20451;-61
2022/05/17 04:55:44;;;;;;;4.60;2.50;;;;;;;22.36;56.83;100806.69;5113265;28;20450;-61
2022/05/17 04:58:10;;;;;;;5.00;2.47;;;;;;;22.37;56.73;100804.66;5095624;28;20178;-61
2022/05/17 05:00:35;;;;;;;3.87;2.70;;;;;;;22.37;57.17;100808.34;5092509;28;20594;-61
2022/05/17 05:03:00;;;;;;;5.10;2.90;;;;;;;22.35;56.88;100804.19;5091855;28;20183;-61
2022/05/17 05:05:27;;;;;;;3.77;2.70;;;;;;;22.35;57.21;100816.53;5092110;28;20175;-61
2022/05/17 05:07:52;;;;;;;5.03;2.80;;;;;;;22.36;57.08;100817.34;5091890;28;20596;-61
2022/05/17 05:10:18;;;;;;;6.73;2.67;;;;;;;22.36;56.70;100820.22;5090603;28;20468;-61
2022/05/17 05:12:43;;;;;;;4.57;2.70;;;;;;;22.36;56.86;100820.22;5092388;28;20209;-61
2022/05/17 05:15:10;;;;;;;7.20;3.37;;;;;;;22.35;56.76;100813.66;5092678;28;20446;-61
2022/05/17 05:17:36;;;;;;;4.67;2.90;;;;;;;22.34;56.82;100814.91;5117118;27;20176;-61
2022/05/17 05:20:01;;;;;;;4.23;2.93;;;;;;;22.34;57.28;100812.03;5100591;27;20446;-61
2022/05/17 05:22:29;;;;;;;4.40;3.07;;;;;;;22.33;56.81;100807.47;5109595;28;20215;-61
2022/05/17 05:24:55;;;;;;;4.50;3.00;;;;;;;22.33;57.39;100810.34;5112748;28;20166;-61
2022/05/17 05:27:21;;;;;;;6.10;2.90;;;;;;;22.34;56.95;100814.06;5110966;28;20561;-61
2022/05/17 05:29:46;;;;;;;6.73;2.70;;;;;;;22.32;57.67;100810.75;5111498;28;20424;-61
2022/05/17 05:32:12;;;;;;;8.50;3.37;;;;;;;22.36;57.71;100817.34;5105327;28;20698;-61
2022/05/17 05:34:37;;;;;;;14.63;6.27;;;;;;;22.64;60.56;100815.66;5101642;28;20208;-61
2022/05/17 05:37:03;;;;;;;17.70;9.63;;;;;;;22.90;61.32;100817.50;5104039;28;20185;-61
2022/05/17 05:39:29;;;;;;;18.97;8.37;;;;;;;22.78;62.03;100821.53;5112023;28;20192;-61
2022/05/17 05:41:55;;;;;;;12.33;7.00;;;;;;;22.60;61.26;100823.41;5097630;28;20839;-60
2022/05/17 05:44:21;;;;;;;10.17;6.03;;;;;;;22.59;61.49;100818.91;5107011;28;20178;-60
2022/05/17 05:46:46;;;;;;;9.17;5.60;;;;;;;22.58;60.84;100816.41;5111519;28;20174;-61
2022/05/17 05:49:11;;;;;;;9.17;4.90;;;;;;;22.57;60.31;100826.28;5112156;28;20655;-61
2022/05/17 05:51:38;;;;;;;13.20;5.73;;;;;;;22.54;60.47;100813.50;5098049;28;20247;-60
2022/05/17 05:54:04;;;;;;;10.67;5.40;;;;;;;22.51;60.13;100817.16;5092281;28;20252;-61
2022/05/17 05:56:29;;;;;;;10.43;5.20;;;;;;;22.54;60.23;100819.25;5100040;28;20435;-62
2022/05/17 05:58:55;;;;;;;10.30;4.73;;;;;;;22.50;59.99;100818.38;5109829;28;20185;-63
2022/05/17 06:01:20;;;;;;;8.53;5.07;;;;;;;22.50;60.00;100824.13;5110336;28;20192;-62
2022/05/17 06:03:46;;;;;;;8.90;4.63;;;;;;;22.50;59.87;100829.88;5110633;28;20205;-61
2022/05/17 06:06:12;;;;;;;8.90;5.00;;;;;;;22.51;59.95;100822.06;5110431;28;20177;-61
2022/05/17 06:08:37;;;;;;;6.60;4.17;;;;;;;22.50;60.06;100827.00;5110109;28;20585;-61
2022/05/17 06:11:03;;;;;;;8.63;4.87;;;;;;;22.48;60.66;100829.44;5097388;28;20272;-61
2022/05/17 06:13:29;;;;;;;8.37;4.33;;;;;;;22.59;60.80;100829.56;5108786;28;20184;-61
2022/05/17 06:15:54;;;;;;;7.60;4.97;;;;;;;22.55;60.88;100832.41;5093562;28;20190;-61
2022/05/17 06:18:20;;;;;;;11.40;5.20;;;;;;;22.60;61.13;100825.47;5126199;27;20173;-61
2022/05/17 06:20:52;;;;;;;11.70;4.77;;;;;;;22.58;61.58;100830.78;5121295;27;20235;-61
2022/05/17 06:23:18;;;;;;;7.87;4.97;;;;;;;22.56;61.41;100830.34;5103227;28;20205;-62
2022/05/17 06:25:43;;;;;;;10.03;5.20;;;;;;;22.42;61.16;100833.88;5110859;28;20474;-62
2022/05/17 06:28:09;;;;;;;8.00;5.30;;;;;;;22.42;60.53;100828.13;5110011;28;20228;-62
2022/05/17 06:30:35;;;;;;;14.87;5.43;;;;;;;22.35;61.06;100839.56;5111150;28;20186;-61
2022/05/17 06:33:01;;;;;;;8.50;3.73;;;;;;;22.32;61.48;100837.47;5110719;28;20205;-61
2022/05/17 06:35:26;;;;;;;7.50;4.33;;;;;;;22.35;61.36;100836.69;5110444;28;20578;-61
2022/05/17 06:37:52;;;;;;;8.07;4.07;;;;;;;22.38;61.72;100844.50;5109564;28;20193;-61
2022/05/17 06:40:18;;;;;;;6.57;4.90;;;;;;;22.45;61.86;100844.63;5111165;28;20208;-62
2022/05/17 06:42:43;;;;;;;7.43;4.00;;;;;;;22.49;61.37;100838.91;5110664;28;20466;-62
2022/05/17 06:45:09;;;;;;;7.37;4.40;;;;;;;22.52;61.61;100844.69;5111354;28;20241;-62
2022/05/17 06:47:35;;;;;;;8.77;4.77;;;;;;;22.51;61.65;100836.47;5106958;28;20176;-62
2022/05/17 06:50:00;;;;;;;14.27;5.67;;;;;;;22.52;63.06;100838.94;5102982;28;20815;-62
2022/05/17 06:52:27;;;;;;;20.80;5.97;;;;;;;22.54;64.37;100836.53;5105987;28;20652;-62
2022/05/17 06:54:53;;;;;;;19.87;6.23;;;;;;;22.53;63.35;100842.66;5110376;28;20200;-62
2022/05/17 06:57:18;;;;;;;11.30;4.67;;;;;;;22.49;63.09;100844.66;5100153;28;20432;-61
2022/05/17 06:59:44;;;;;;;14.43;5.17;;;;;;;22.49;62.84;100842.63;5089313;28;20185;-61
2022/05/17 07:02:10;;;;;;;12.30;4.67;;;;;;;22.51;62.40;100843.06;5092590;28;20182;-61
2022/05/17 07:04:36;;;;;;;19.67;5.50;;;;;;;22.52;62.83;100838.94;5088673;28;20264;-61
2022/05/17 07:07:02;;;;;;;16.60;4.97;;;;;;;22.54;62.38;100847.19;5089670;28;20526;-61
2022/05/17 07:09:28;;;;;;;16.97;5.67;;;;;;;22.54;62.43;100845.16;5091743;28;20256;-61
2022/05/17 07:14:37;;;;;;;12.23;4.47;;;;;;;22.57;62.32;100844.34;5093676;28;20252;-61
2022/05/17 07:17:06;;;;;;;11.97;4.50;;;;;;;22.58;61.94;100845.19;5110196;27;20423;-61
2022/05/17 07:19:33;;;;;;;9.30;3.90;;;;;;;22.56;61.75;100839.81;5135660;27;20188;-61
2022/05/17 07:22:01;;;;;;;13.93;4.80;;;;;;;22.57;62.35;100844.34;5104649;27;20424;-61
2022/05/17 07:24:27;;;;;;;8.77;4.10;;;;;;;22.58;62.16;100843.13;5094404;28;20416;-61
2022/05/17 07:26:53;;;;;;;14.63;3.93;;;;;;;22.57;61.86;100847.22;5094708;28;20419;-61
2022/05/17 07:29:18;;;;;;;14.93;4.10;;;;;;;22.57;61.75;100835.72;5093776;28;20799;-62
2022/05/17 07:31:45;;;;;;;12.00;3.93;;;;;;;22.57;61.92;100832.84;5112319;28;20617;-61
2022/05/17 07:34:10;;;;;;;13.93;4.23;;;;;;;22.57;61.88;100837.78;5113923;28;20201;-61
2022/05/17 07:36:35;;;;;;;15.80;3.60;;;;;;;22.57;61.79;100832.03;5114991;28;20411;-61
2022/05/17 07:39:01;;;;;;;11.47;3.90;;;;;;;22.56;61.58;100834.06;5114808;28;20239;-61
2022/05/17 07:41:26;;;;;;;10.73;4.47;;;;;;;22.56;61.61;100834.06;5114938;28;20174;-61
2022/05/17 07:43:52;;;;;;;12.53;4.53;;;;;;;22.54;61.71;100827.88;5112903;28;20177;-61
2022/05/17 07:46:17;;;;;;;9.63;4.23;;;;;;;22.56;61.44;100833.22;5113288;28;20553;-61
2022/05/17 07:48:43;;;;;;;9.00;3.47;;;;;;;22.55;61.52;100832.41;5109319;28;20181;-61
2022/05/17 07:51:09;;;;;;;9.10;3.73;;;;;;;22.56;61.22;100827.47;5104130;28;20181;-61
2022/05/17 07:53:34;;;;;;;8.57;3.50;;;;;;;22.57;61.17;100827.06;5092491;28;20714;-61
2022/05/17 07:56:00;;;;;;;7.63;3.50;;;;;;;22.57;61.62;100824.19;5092656;28;20568;-61
2022/05/17 07:58:25;;;;;;;12.90;3.63;;;;;;;22.55;61.37;100826.66;5093690;28;20220;-61
2022/05/17 08:00:51;;;;;;;13.53;3.80;;;;;;;22.55;61.11;100828.69;5094075;28;20174;-61
2022/05/17 08:03:18;;;;;;;8.20;3.50;;;;;;;22.55;61.79;100825.81;5092156;28;20731;-61
2022/05/17 08:05:43;;;;;;;8.23;3.10;;;;;;;22.55;61.22;100832.41;5091111;28;20177;-61
2022/05/17 08:08:09;;;;;;;8.30;3.70;;;;;;;22.54;61.51;100836.53;5092015;28;20847;-61
2022/05/17 08:10:34;;;;;;;7.40;3.20;;;;;;;22.55;61.28;100838.16;5092054;28;20218;-61
2022/05/17 08:13:00;;;;;;;9.47;3.70;;;;;;;22.54;61.72;100822.13;5092919;28;20182;-61
2022/05/17 08:15:27;;;;;;;8.03;3.57;;;;;;;22.54;61.41;100824.16;5093650;28;20179;-61
2022/05/17 08:17:53;;;;;;;8.40;3.43;;;;;;;22.54;61.31;100825.00;5121349;27;20262;-61
2022/05/17 08:20:18;;;;;;;8.27;3.27;;;;;;;22.54;61.42;100827.88;5127921;27;20922;-61
2022/05/17 08:22:44;;;;;;;7.07;3.20;;;;;;;22.54;61.23;100815.53;5114008;28;20242;-61
2022/05/17 08:27:57;;;;;;;6.77;3.70;;;;;;;22.54;61.40;100825.00;5093596;28;20209;-61
2022/05/17 08:30:23;;;;;;;5.77;3.40;;;;;;;22.54;61.21;100825.00;5092536;28;20416;-61
2022/05/17 08:35:55;;;;;;;9.23;3.90;;;;;;;22.54;61.53;100827.88;5091843;28;20463;-61
2022/05/17 08:38:36;;;;;;;8.53;4.10;;;;;;;22.54;61.41;100827.03;5091544;28;20404;-61
2022/05/17 08:41:23;;;;;;;8.80;3.43;;;;;;;22.52;61.24;100832.38;5091614;28;20466;-61
2022/05/17 08:44:02;;;;;;;7.40;4.20;;;;;;;22.54;61.77;100825.00;5091513;28;20539;-61
2022/05/17 08:46:52;;;;;;;11.60;4.07;;;;;;;22.55;61.44;100822.94;5092365;28;20945;-61
2022/05/17 08:49:19;;;;;;;6.80;3.90;;;;;;;22.55;61.75;100822.94;5093755;28;20887;-61
2022/05/17 08:52:07;;;;;;;11.40;3.93;;;;;;;22.55;61.72;100822.94;5092984;28;20536;-62
2022/05/17 08:54:41;;;;;;;6.30;3.60;;;;;;;22.54;61.37;100818.41;5111957;28;20439;-61
2022/05/17 08:57:12;;;;;;;5.50;3.50;;;;;;;22.54;61.63;100819.25;5113381;28;20439;-62
2022/05/17 08:59:38;;;;;;;7.50;4.20;;;;;;;22.54;61.71;100825.00;5112874;28;21006;-61
2022/05/17 09:02:15;;;;;;;4.90;3.07;;;;;;;22.54;61.81;100830.75;5112737;28;20412;-61
2022/05/17 09:04:43;;;;;;;7.80;3.40;;;;;;;22.55;61.78;100826.66;5112031;28;20635;-61
2022/05/17 09:07:22;;;;;;;4.93;3.20;;;;;;;22.54;61.75;100822.13;5094627;28;20459;-61
2022/05/17 09:09:55;;;;;;;7.10;3.77;;;;;;;22.55;61.41;100825.81;5092068;28;20849;-61
2022/05/17 09:12:30;;;;;;;6.40;3.80;;;;;;;22.55;61.31;100826.66;5090177;28;20416;-61
2022/05/17 09:14:56;;;;;;;4.70;3.60;;;;;;;22.55;61.19;100823.78;5090926;28;20459;-61
2022/05/17 09:17:24;;;;;;;5.30;3.83;;;;;;;22.55;61.15;100820.91;5093973;27;20460;-61
2022/05/17 09:19:50;;;;;;;7.43;4.10;;;;;;;22.54;61.50;100825.00;5132729;27;20418;-61
2022/05/17 09:22:16;;;;;;;12.20;4.40;;;;;;;22.55;61.70;100826.66;5096153;27;20428;-61
2022/05/17 09:24:43;;;;;;;6.50;3.90;;;;;;;22.55;61.54;100825.81;5110042;28;20787;-61
2022/05/17 09:27:10;;;;;;;8.80;4.50;;;;;;;22.55;61.52;100823.78;5111583;28;20170;-61
2022/05/17 09:29:39;;;;;;;5.10;3.70;;;;;;;22.56;61.34;100813.06;5094504;28;20801;-61
2022/05/17 09:32:11;;;;;;;7.60;3.80;;;;;;;22.56;61.47;100811.03;5112362;28;20404;-61
2022/05/17 09:34:39;;;;;;;4.57;3.20;;;;;;;22.57;61.43;100814.75;5109874;28;20435;-61
2022/05/17 09:37:07;;;;;;;7.90;3.67;;;;;;;22.57;61.21;100806.13;5110030;28;20752;-61
2022/05/17 09:39:33;;;;;;;5.83;3.63;;;;;;;22.57;61.02;100809.81;5110934;28;20419;-61
2022/05/17 09:42:01;;;;;;;10.10;3.83;;;;;;;22.57;61.48;100804.06;5110894;28;20953;-61
2022/05/17 09:44:27;;;;;;;9.40;4.07;;;;;;;22.57;61.15;100798.28;5106713;28;20182;-61
2022/05/17 09:47:00;;;;;;;7.37;4.10;;;;;;;22.59;61.27;100797.91;5109952;28;20415;-61
2022/05/17 09:52:34;;;;;;;6.33;3.07;;;;;;;22.59;61.14;100783.50;5090335;28;20449;-61
2022/05/17 09:55:27;;;;;;;7.40;3.50;;;;;;;22.58;61.09;100790.50;5090407;28;20520;-61
2022/05/17 09:58:05;;;;;;;10.23;3.83;;;;;;;22.57;60.94;100778.16;5088317;28;20492;-61
2022/05/17 10:00:31;;;;;;;5.40;3.60;;;;;;;22.59;60.89;100781.47;5091955;28;20840;-61
2022/05/17 10:03:00;;;;;;;8.97;3.67;;;;;;;22.60;60.79;100785.16;5090431;28;20507;-61
2022/05/17 10:05:28;;;;;;;9.17;4.50;;;;;;;22.59;60.69;100775.72;5090435;28;20271;-61
2022/05/17 10:07:58;;;;;;;5.13;3.80;;;;;;;22.58;60.81;100771.16;5090175;28;20441;-61
2022/05/17 10:10:31;;;;;;;5.10;3.37;;;;;;;22.57;60.86;100772.41;5089396;28;20480;-61
2022/05/17 10:13:02;;;;;;;6.63;3.70;;;;;;;22.60;61.02;100777.38;5090102;28;20862;-61
2022/05/17 10:15:27;;;;;;;5.20;3.53;;;;;;;22.59;60.89;100764.22;5072184;28;20475;-61
2022/05/17 10:18:02;;;;;;;6.33;3.43;;;;;;;22.60;60.83;100767.91;5120384;27;20427;-61
2022/05/17 10:20:36;;;;;;;5.50;3.60;;;;;;;22.60;60.54;100760.09;5107927;27;20186;-61
2022/05/17 10:23:25;;;;;;;6.00;3.60;;;;;;;22.59;60.28;100767.09;5090002;28;20903;-61
2022/05/17 10:26:24;;;;;;;5.87;4.10;;;;;;;22.59;60.21;100757.59;5109358;28;20891;-61
2022/05/17 10:28:58;;;;;;;6.80;3.50;;;;;;;22.58;60.34;100751.00;5101359;28;20605;-61
2022/05/17 10:31:46;;;;;;;5.20;3.17;;;;;;;22.61;60.58;100752.28;5110181;28;20420;-61
2022/05/17 10:34:38;;;;;;;5.57;3.57;;;;;;;22.62;60.25;100745.31;5111681;28;20847;-61
2022/05/17 10:37:07;;;;;;;5.30;3.47;;;;;;;22.60;60.16;100751.47;5110273;28;20437;-61
2022/05/17 10:39:47;;;;;;;7.83;3.77;;;;;;;22.59;60.07;100749.81;5108716;28;20420;-61
2022/05/17 10:42:13;;;;;;;4.93;3.50;;;;;;;22.61;59.85;100744.47;5092094;28;20407;-61
2022/05/17 10:44:40;;;;;;;6.80;3.37;;;;;;;22.62;59.93;100740.38;5109729;28;20467;-61
2022/05/17 10:47:20;;;;;;;5.53;3.50;;;;;;;22.60;60.37;100739.94;5107993;28;20170;-61
2022/05/17 10:49:50;;;;;;;5.23;3.77;;;;;;;22.60;60.25;100742.84;5108752;28;20420;-61
2022/05/17 10:52:25;;;;;;;7.33;3.50;;;;;;;22.61;59.94;100737.88;5090995;28;20420;-61
2022/05/17 10:55:03;;;;;;;7.23;3.80;;;;;;;22.61;60.06;100730.09;5091141;28;20451;-61
2022/05/17 10:57:47;;;;;;;7.97;4.20;;;;;;;22.61;60.27;100735.84;5089792;28;20802;-61
2022/05/17 11:00:21;;;;;;;6.07;4.10;;;;;;;22.61;60.30;100732.13;5090798;28;20426;-61
2022/05/17 11:03:21;;;;;;;5.90;3.37;;;;;;;22.60;60.55;100731.31;5089919;28;20404;-61
2022/05/17 11:06:11;;;;;;;5.57;3.50;;;;;;;22.62;60.14;100725.16;5092511;28;20954;-61
2022/05/17 11:08:57;;;;;;;6.17;3.43;;;;;;;22.62;60.25;100723.09;5091198;28;20401;-61
2022/05/17 11:11:50;;;;;;;5.77;3.53;;;;;;;22.62;60.26;100717.34;5089318;28;20455;-61
2022/05/17 11:14:45;;;;;;;5.00;3.80;;;;;;;22.61;60.36;100715.69;5091390;28;20498;-61
2022/05/17 11:17:23;;;;;;;5.70;3.20;;;;;;;22.61;60.07;100715.69;5099910;28;20494;-61
2022/05/17 11:19:52;;;;;;;7.00;3.50;;;;;;;22.62;60.02;100714.47;5090728;28;20400;-61
2022/05/17 11:22:20;;;;;;;4.50;3.53;;;;;;;22.66;59.89;100715.31;5090030;28;20511;-61
2022/05/17 11:24:54;;;;;;;6.60;3.70;;;;;;;22.65;59.42;100707.91;5090672;28;20416;-61
2022/05/17 11:27:36;;;;;;;6.13;3.50;;;;;;;22.65;59.62;100705.03;5090681;28;20418;-61
2022/05/17 11:30:13;;;;;;;8.43;4.37;;;;;;;22.65;59.93;100704.19;5090716;28;20449;-61
2022/05/17 11:32:42;;;;;;;7.23;4.37;;;;;;;22.62;59.92;100700.06;5089289;28;20399;-62
2022/05/17 11:35:26;;;;;;;5.93;4.03;;;;;;;22.62;59.93;100702.94;5090549;28;20525;-62
2022/05/17 11:37:51;;;;;;;6.63;3.63;;;;;;;22.64;59.92;100696.81;5090619;28;20404;-62
2022/05/17 11:40:49;;;;;;;6.87;3.97;;;;;;;22.63;59.73;100695.97;5089076;28;20431;-61
2022/05/17 11:43:42;;;;;;;5.47;3.90;;;;;;;22.67;59.07;100690.25;5103560;28;20170;-61
2022/05/17 11:46:29;;;;;;;8.50;4.27;;;;;;;22.68;59.21;100686.94;5104848;28;20455;-61